sensor_id;sensor_type;location;lat;lon;timestamp;temperature;humidity
20700;DHT22;10511;51.232;9.420;2023-05-10T00:00:32;16.20;99.90
20700;DHT22;10511;51.232;9.420;2023-05-10T00:02:59;16.20;99.90
20700;DHT22;10511;51.232;9.420;2023-05-10T00:05:27;16.10;99.90
20700;DHT22;10511;51.232;9.420;2023-05-10T00:07:54;16.00;99.90
20700;DHT22;10511;51.232;9.420;2023-05-10T00:10:21;16.00;99.90
20700;DHT22;10511;51.232;9.420;2023-05-10T00:12:48;16.00;99.90
20700;DHT22;10511;51.232;9.420;2023-05-10T00:15:15;16.10;99.90
20700;DHT22;10511;51.232;9.420;2023-05-10T00:17:43;16.10;99.90
20700;DHT22;10511;51.232;9.420;2023-05-10T00:20:11;16.10;99.90
20700;DHT22;10511;51.232;9.420;2023-05-10T00:22:39;16.20;99.90
20700;DHT22;10511;51.232;9.420;2023-05-10T00:25:07;16.20;99.90
20700;DHT22;10511;51.232;9.420;2023-05-10T00:27:34;16.20;99.90
20700;DHT22;10511;51.232;9.420;2023-05-10T00:30:01;16.30;99.90
20700;DHT22;10511;51.232;9.420;2023-05-10T00:32:28;16.30;99.90
20700;DHT22;10511;51.232;9.420;2023-05-10T00:34:55;16.20;99.90
20700;DHT22;10511;51.232;9.420;2023-05-10T00:37:22;16.20;99.90
20700;DHT22;10511;51.232;9.420;2023-05-10T00:39:50;16.20;99.90
20700;DHT22;10511;51.232;9.420;2023-05-10T00:42:17;16.20;99.90
20700;DHT22;10511;51.232;9.420;2023-05-10T00:44:44;16.20;99.90
20700;DHT22;10511;51.232;9.420;2023-05-10T00:47:12;16.10;99.90
20700;DHT22;10511;51.232;9.420;2023-05-10T00:49:39;16.20;99.90
20700;DHT22;10511;51.232;9.420;2023-05-10T00:52:07;16.10;99.90
20700;DHT22;10511;51.232;9.420;2023-05-10T00:54:34;16.00;99.90
20700;DHT22;10511;51.232;9.420;2023-05-10T00:57:02;15.90;99.90
20700;DHT22;10511;51.232;9.420;2023-05-10T00:59:29;15.90;99.90
20700;DHT22;10511;51.232;9.420;2023-05-10T01:01:57;15.80;99.90
20700;DHT22;10511;51.232;9.420;2023-05-10T01:04:24;15.70;99.90
20700;DHT22;10511;51.232;9.420;2023-05-10T01:06:52;15.50;99.90
20700;DHT22;10511;51.232;9.420;2023-05-10T01:09:20;15.40;99.90
20700;DHT22;10511;51.232;9.420;2023-05-10T01:11:47;15.30;99.90
20700;DHT22;10511;51.232;9.420;2023-05-10T01:14:18;15.20;99.90
20700;DHT22;10511;51.232;9.420;2023-05-10T01:16:46;15.20;99.90
20700;DHT22;10511;51.232;9.420;2023-05-10T01:19:19;15.10;99.90
20700;DHT22;10511;51.232;9.420;2023-05-10T01:21:52;15.10;99.90
20700;DHT22;10511;51.232;9.420;2023-05-10T01:24:58;15.20;99.90
20700;DHT22;10511;51.232;9.420;2023-05-10T01:27:51;15.10;99.90
20700;DHT22;10511;51.232;9.420;2023-05-10T01:30:42;14.90;99.90
20700;DHT22;10511;51.232;9.420;2023-05-10T01:33:16;14.80;99.90
20700;DHT22;10511;51.232;9.420;2023-05-10T01:35:51;14.90;99.90
20700;DHT22;10511;51.232;9.420;2023-05-10T01:38:20;14.90;99.90
20700;DHT22;10511;51.232;9.420;2023-05-10T01:41:00;15.00;99.90
20700;DHT22;10511;51.232;9.420;2023-05-10T01:43:35;14.90;99.90
20700;DHT22;10511;51.232;9.420;2023-05-10T01:46:07;15.00;99.90
20700;DHT22;10511;51.232;9.420;2023-05-10T01:48:42;15.10;99.90
20700;DHT22;10511;51.232;9.420;2023-05-10T01:51:14;15.20;99.90
20700;DHT22;10511;51.232;9.420;2023-05-10T01:53:45;15.20;99.90
20700;DHT22;10511;51.232;9.420;2023-05-10T01:56:13;15.20;99.90
20700;DHT22;10511;51.232;9.420;2023-05-10T01:58:40;15.20;99.90
20700;DHT22;10511;51.232;9.420;2023-05-10T02:01:11;15.10;99.90
20700;DHT22;10511;51.232;9.420;2023-05-10T02:03:41;15.20;99.90
20700;DHT22;10511;51.232;9.420;2023-05-10T02:06:10;15.20;99.90
20700;DHT22;10511;51.232;9.420;2023-05-10T02:08:40;15.10;99.90
20700;DHT22;10511;51.232;9.420;2023-05-10T02:11:08;15.10;99.90
20700;DHT22;10511;51.232;9.420;2023-05-10T02:13:38;15.10;99.90
20700;DHT22;10511;51.232;9.420;2023-05-10T02:16:06;15.10;99.90
20700;DHT22;10511;51.232;9.420;2023-05-10T02:18:34;15.00;99.90
20700;DHT22;10511;51.232;9.420;2023-05-10T02:21:04;15.20;99.90
20700;DHT22;10511;51.232;9.420;2023-05-10T02:23:31;15.10;99.90
20700;DHT22;10511;51.232;9.420;2023-05-10T02:25:59;15.20;99.90
20700;DHT22;10511;51.232;9.420;2023-05-10T02:28:28;15.20;99.90
20700;DHT22;10511;51.232;9.420;2023-05-10T02:30:56;15.30;99.90
20700;DHT22;10511;51.232;9.420;2023-05-10T02:33:24;15.30;99.90
20700;DHT22;10511;51.232;9.420;2023-05-10T02:35:52;15.30;99.90
20700;DHT22;10511;51.232;9.420;2023-05-10T02:38:20;15.30;99.90
20700;DHT22;10511;51.232;9.420;2023-05-10T02:40:48;15.20;99.90
20700;DHT22;10511;51.232;9.420;2023-05-10T02:43:16;15.30;99.90
20700;DHT22;10511;51.232;9.420;2023-05-10T02:45:43;15.20;99.90
20700;DHT22;10511;51.232;9.420;2023-05-10T02:48:13;15.30;99.90
20700;DHT22;10511;51.232;9.420;2023-05-10T02:50:43;15.20;99.90
20700;DHT22;10511;51.232;9.420;2023-05-10T02:53:14;14.90;99.90
20700;DHT22;10511;51.232;9.420;2023-05-10T02:55:45;14.70;99.90
20700;DHT22;10511;51.232;9.420;2023-05-10T02:58:14;14.20;99.90
20700;DHT22;10511;51.232;9.420;2023-05-10T03:00:40;14.10;99.90
20700;DHT22;10511;51.232;9.420;2023-05-10T03:03:07;14.20;99.90
20700;DHT22;10511;51.232;9.420;2023-05-10T03:05:34;14.00;99.90
20700;DHT22;10511;51.232;9.420;2023-05-10T03:08:01;14.00;99.90
20700;DHT22;10511;51.232;9.420;2023-05-10T03:10:31;13.90;99.90
20700;DHT22;10511;51.232;9.420;2023-05-10T03:13:10;13.80;99.90
20700;DHT22;10511;51.232;9.420;2023-05-10T03:15:47;13.70;99.90
20700;DHT22;10511;51.232;9.420;2023-05-10T03:18:18;13.80;99.90
20700;DHT22;10511;51.232;9.420;2023-05-10T03:20:49;13.80;99.90
20700;DHT22;10511;51.232;9.420;2023-05-10T03:23:22;13.70;99.90
20700;DHT22;10511;51.232;9.420;2023-05-10T03:25:52;13.80;99.90
20700;DHT22;10511;51.232;9.420;2023-05-10T03:28:21;13.70;99.90
20700;DHT22;10511;51.232;9.420;2023-05-10T03:30:52;13.70;99.90
20700;DHT22;10511;51.232;9.420;2023-05-10T03:33:19;13.70;99.90
20700;DHT22;10511;51.232;9.420;2023-05-10T03:35:46;13.80;99.90
20700;DHT22;10511;51.232;9.420;2023-05-10T03:38:13;13.80;99.90
20700;DHT22;10511;51.232;9.420;2023-05-10T03:40:40;13.90;99.90
20700;DHT22;10511;51.232;9.420;2023-05-10T03:43:07;14.00;99.90
20700;DHT22;10511;51.232;9.420;2023-05-10T03:45:35;14.10;99.90
20700;DHT22;10511;51.232;9.420;2023-05-10T03:48:02;14.20;99.90
20700;DHT22;10511;51.232;9.420;2023-05-10T03:50:29;14.20;99.90
20700;DHT22;10511;51.232;9.420;2023-05-10T03:52:56;14.10;99.90
20700;DHT22;10511;51.232;9.420;2023-05-10T03:55:23;14.10;99.90
20700;DHT22;10511;51.232;9.420;2023-05-10T03:57:50;14.10;99.90
20700;DHT22;10511;51.232;9.420;2023-05-10T04:00:20;14.10;99.90
20700;DHT22;10511;51.232;9.420;2023-05-10T04:02:48;14.00;99.90
20700;DHT22;10511;51.232;9.420;2023-05-10T04:05:15;14.00;99.90
20700;DHT22;10511;51.232;9.420;2023-05-10T04:07:42;13.90;99.90
20700;DHT22;10511;51.232;9.420;2023-05-10T04:10:10;13.80;99.90
20700;DHT22;10511;51.232;9.420;2023-05-10T04:12:38;13.70;99.90
20700;DHT22;10511;51.232;9.420;2023-05-10T04:15:05;13.60;99.90
20700;DHT22;10511;51.232;9.420;2023-05-10T04:17:32;13.60;99.90
20700;DHT22;10511;51.232;9.420;2023-05-10T04:20:01;13.60;99.90
20700;DHT22;10511;51.232;9.420;2023-05-10T04:22:29;13.60;99.90
20700;DHT22;10511;51.232;9.420;2023-05-10T04:24:56;13.60;99.90
20700;DHT22;10511;51.232;9.420;2023-05-10T04:27:22;13.70;99.90
20700;DHT22;10511;51.232;9.420;2023-05-10T04:29:49;13.70;99.90
20700;DHT22;10511;51.232;9.420;2023-05-10T04:32:16;13.80;99.90
20700;DHT22;10511;51.232;9.420;2023-05-10T04:34:43;13.80;99.90
20700;DHT22;10511;51.232;9.420;2023-05-10T04:37:11;13.90;99.90
20700;DHT22;10511;51.232;9.420;2023-05-10T04:39:38;13.90;99.90
20700;DHT22;10511;51.232;9.420;2023-05-10T04:42:05;13.90;99.90
20700;DHT22;10511;51.232;9.420;2023-05-10T04:44:32;13.90;99.90
20700;DHT22;10511;51.232;9.420;2023-05-10T04:47:00;13.90;99.90
20700;DHT22;10511;51.232;9.420;2023-05-10T04:49:27;13.80;99.90
20700;DHT22;10511;51.232;9.420;2023-05-10T04:51:55;13.70;99.90
20700;DHT22;10511;51.232;9.420;2023-05-10T04:54:23;13.60;99.90
20700;DHT22;10511;51.232;9.420;2023-05-10T04:56:50;13.40;99.90
20700;DHT22;10511;51.232;9.420;2023-05-10T04:59:17;13.20;99.90
20700;DHT22;10511;51.232;9.420;2023-05-10T05:01:44;13.10;99.90
20700;DHT22;10511;51.232;9.420;2023-05-10T05:04:10;13.20;99.90
20700;DHT22;10511;51.232;9.420;2023-05-10T05:06:37;13.20;99.90
20700;DHT22;10511;51.232;9.420;2023-05-10T05:09:04;13.10;99.90
20700;DHT22;10511;51.232;9.420;2023-05-10T05:11:32;13.10;99.90
20700;DHT22;10511;51.232;9.420;2023-05-10T05:13:59;13.00;99.90
20700;DHT22;10511;51.232;9.420;2023-05-10T05:16:27;13.00;99.90
20700;DHT22;10511;51.232;9.420;2023-05-10T05:18:54;13.00;99.90
20700;DHT22;10511;51.232;9.420;2023-05-10T05:21:21;13.00;99.90
20700;DHT22;10511;51.232;9.420;2023-05-10T05:23:48;13.00;99.90
20700;DHT22;10511;51.232;9.420;2023-05-10T05:26:15;13.00;99.90
20700;DHT22;10511;51.232;9.420;2023-05-10T05:28:43;13.10;99.90
20700;DHT22;10511;51.232;9.420;2023-05-10T05:31:10;13.10;99.90
20700;DHT22;10511;51.232;9.420;2023-05-10T05:33:37;13.20;99.90
20700;DHT22;10511;51.232;9.420;2023-05-10T05:36:04;13.20;99.90
20700;DHT22;10511;51.232;9.420;2023-05-10T05:38:32;13.20;99.90
20700;DHT22;10511;51.232;9.420;2023-05-10T05:40:58;13.20;99.90
20700;DHT22;10511;51.232;9.420;2023-05-10T05:43:25;13.10;99.90
20700;DHT22;10511;51.232;9.420;2023-05-10T05:45:54;13.20;99.90
20700;DHT22;10511;51.232;9.420;2023-05-10T05:48:23;13.10;99.90
20700;DHT22;10511;51.232;9.420;2023-05-10T05:50:50;13.10;99.90
20700;DHT22;10511;51.232;9.420;2023-05-10T05:53:20;13.20;99.90
20700;DHT22;10511;51.232;9.420;2023-05-10T05:55:57;13.20;99.90
20700;DHT22;10511;51.232;9.420;2023-05-10T05:58:25;13.10;99.90
20700;DHT22;10511;51.232;9.420;2023-05-10T06:00:53;13.10;99.90
20700;DHT22;10511;51.232;9.420;2023-05-10T06:03:20;13.20;99.90
20700;DHT22;10511;51.232;9.420;2023-05-10T06:05:47;13.30;99.90
20700;DHT22;10511;51.232;9.420;2023-05-10T06:08:14;13.30;99.90
20700;DHT22;10511;51.232;9.420;2023-05-10T06:10:41;13.30;99.90
20700;DHT22;10511;51.232;9.420;2023-05-10T06:13:07;13.30;99.90
20700;DHT22;10511;51.232;9.420;2023-05-10T06:15:35;13.30;99.90
20700;DHT22;10511;51.232;9.420;2023-05-10T06:18:03;13.30;99.90
20700;DHT22;10511;51.232;9.420;2023-05-10T06:20:31;13.40;99.90
20700;DHT22;10511;51.232;9.420;2023-05-10T06:22:58;13.40;99.90
20700;DHT22;10511;51.232;9.420;2023-05-10T06:25:25;13.40;99.90
20700;DHT22;10511;51.232;9.420;2023-05-10T06:27:51;13.40;99.90
20700;DHT22;10511;51.232;9.420;2023-05-10T06:30:23;13.50;99.90
20700;DHT22;10511;51.232;9.420;2023-05-10T06:32:52;13.50;99.90
20700;DHT22;10511;51.232;9.420;2023-05-10T06:35:21;13.50;99.90
20700;DHT22;10511;51.232;9.420;2023-05-10T06:37:48;13.50;99.90
20700;DHT22;10511;51.232;9.420;2023-05-10T06:40:15;13.50;99.90
20700;DHT22;10511;51.232;9.420;2023-05-10T06:42:42;13.60;99.90
20700;DHT22;10511;51.232;9.420;2023-05-10T06:45:10;13.70;99.90
20700;DHT22;10511;51.232;9.420;2023-05-10T06:47:37;13.80;99.90
20700;DHT22;10511;51.232;9.420;2023-05-10T06:50:05;13.80;99.90
20700;DHT22;10511;51.232;9.420;2023-05-10T06:52:33;13.80;99.90
20700;DHT22;10511;51.232;9.420;2023-05-10T06:55:00;13.80;99.90
20700;DHT22;10511;51.232;9.420;2023-05-10T06:57:27;13.80;99.90
20700;DHT22;10511;51.232;9.420;2023-05-10T06:59:54;13.90;99.90
20700;DHT22;10511;51.232;9.420;2023-05-10T07:02:21;13.80;99.90
20700;DHT22;10511;51.232;9.420;2023-05-10T07:04:48;13.70;99.90
20700;DHT22;10511;51.232;9.420;2023-05-10T07:07:15;13.70;99.90
20700;DHT22;10511;51.232;9.420;2023-05-10T07:09:43;13.80;99.90
20700;DHT22;10511;51.232;9.420;2023-05-10T07:12:10;13.70;99.90
20700;DHT22;10511;51.232;9.420;2023-05-10T07:14:37;13.80;99.90
20700;DHT22;10511;51.232;9.420;2023-05-10T07:17:04;13.80;99.90
20700;DHT22;10511;51.232;9.420;2023-05-10T07:19:31;13.80;99.90
20700;DHT22;10511;51.232;9.420;2023-05-10T07:21:58;13.70;99.90
20700;DHT22;10511;51.232;9.420;2023-05-10T07:24:25;13.60;99.90
20700;DHT22;10511;51.232;9.420;2023-05-10T07:26:53;13.40;99.90
20700;DHT22;10511;51.232;9.420;2023-05-10T07:29:20;13.30;99.90
20700;DHT22;10511;51.232;9.420;2023-05-10T07:31:47;13.30;99.90
20700;DHT22;10511;51.232;9.420;2023-05-10T07:34:13;13.10;99.90
20700;DHT22;10511;51.232;9.420;2023-05-10T07:36:40;13.00;99.90
20700;DHT22;10511;51.232;9.420;2023-05-10T07:39:07;13.00;99.90
20700;DHT22;10511;51.232;9.420;2023-05-10T07:41:34;13.10;99.90
20700;DHT22;10511;51.232;9.420;2023-05-10T07:44:04;13.20;99.90
20700;DHT22;10511;51.232;9.420;2023-05-10T07:46:31;13.10;99.90
20700;DHT22;10511;51.232;9.420;2023-05-10T07:48:58;13.20;99.90
20700;DHT22;10511;51.232;9.420;2023-05-10T07:51:25;13.30;99.90
20700;DHT22;10511;51.232;9.420;2023-05-10T07:53:53;13.40;99.90
20700;DHT22;10511;51.232;9.420;2023-05-10T07:56:22;13.50;99.90
20700;DHT22;10511;51.232;9.420;2023-05-10T07:58:50;13.50;99.90
20700;DHT22;10511;51.232;9.420;2023-05-10T08:01:19;13.40;99.90
20700;DHT22;10511;51.232;9.420;2023-05-10T08:03:46;13.60;99.90
20700;DHT22;10511;51.232;9.420;2023-05-10T08:06:13;13.80;99.90
20700;DHT22;10511;51.232;9.420;2023-05-10T08:08:41;13.80;99.90
20700;DHT22;10511;51.232;9.420;2023-05-10T08:11:07;13.80;99.90
20700;DHT22;10511;51.232;9.420;2023-05-10T08:13:34;13.90;99.90
20700;DHT22;10511;51.232;9.420;2023-05-10T08:16:01;13.90;99.90
20700;DHT22;10511;51.232;9.420;2023-05-10T08:18:29;14.00;99.90
20700;DHT22;10511;51.232;9.420;2023-05-10T08:20:56;14.10;99.90
20700;DHT22;10511;51.232;9.420;2023-05-10T08:23:23;14.20;99.90
20700;DHT22;10511;51.232;9.420;2023-05-10T08:25:50;14.20;99.90
20700;DHT22;10511;51.232;9.420;2023-05-10T08:28:17;14.30;99.90
20700;DHT22;10511;51.232;9.420;2023-05-10T08:30:43;14.30;99.90
20700;DHT22;10511;51.232;9.420;2023-05-10T08:33:10;14.30;99.90
20700;DHT22;10511;51.232;9.420;2023-05-10T08:35:38;14.40;99.90
20700;DHT22;10511;51.232;9.420;2023-05-10T08:38:06;14.40;99.90
20700;DHT22;10511;51.232;9.420;2023-05-10T08:40:33;14.50;99.90
20700;DHT22;10511;51.232;9.420;2023-05-10T08:43:05;14.60;99.90
20700;DHT22;10511;51.232;9.420;2023-05-10T08:45:33;14.60;99.90
20700;DHT22;10511;51.232;9.420;2023-05-10T08:48:05;14.60;99.90
20700;DHT22;10511;51.232;9.420;2023-05-10T08:50:34;14.50;99.90
20700;DHT22;10511;51.232;9.420;2023-05-10T08:53:06;14.60;99.90
20700;DHT22;10511;51.232;9.420;2023-05-10T08:55:35;14.80;99.90
20700;DHT22;10511;51.232;9.420;2023-05-10T08:58:04;14.80;99.90
20700;DHT22;10511;51.232;9.420;2023-05-10T09:00:31;14.80;99.90
20700;DHT22;10511;51.232;9.420;2023-05-10T09:02:58;14.80;99.90
20700;DHT22;10511;51.232;9.420;2023-05-10T09:05:25;15.00;99.90
20700;DHT22;10511;51.232;9.420;2023-05-10T09:07:52;15.10;99.90
20700;DHT22;10511;51.232;9.420;2023-05-10T09:10:21;15.10;99.90
20700;DHT22;10511;51.232;9.420;2023-05-10T09:12:48;15.10;99.90
20700;DHT22;10511;51.232;9.420;2023-05-10T09:15:16;15.30;99.90
20700;DHT22;10511;51.232;9.420;2023-05-10T09:17:44;15.30;99.90
20700;DHT22;10511;51.232;9.420;2023-05-10T09:20:12;15.30;99.90
20700;DHT22;10511;51.232;9.420;2023-05-10T09:22:39;15.30;99.90
20700;DHT22;10511;51.232;9.420;2023-05-10T09:25:07;15.20;99.90
20700;DHT22;10511;51.232;9.420;2023-05-10T09:27:37;15.30;99.90
20700;DHT22;10511;51.232;9.420;2023-05-10T09:30:05;15.50;99.90
20700;DHT22;10511;51.232;9.420;2023-05-10T09:32:39;15.60;99.90
20700;DHT22;10511;51.232;9.420;2023-05-10T09:35:07;15.80;99.90
20700;DHT22;10511;51.232;9.420;2023-05-10T09:37:34;15.70;99.90
20700;DHT22;10511;51.232;9.420;2023-05-10T09:40:04;15.70;99.90
20700;DHT22;10511;51.232;9.420;2023-05-10T09:42:33;15.80;99.90
20700;DHT22;10511;51.232;9.420;2023-05-10T09:45:03;15.80;99.90
20700;DHT22;10511;51.232;9.420;2023-05-10T09:47:32;15.80;99.90
20700;DHT22;10511;51.232;9.420;2023-05-10T09:50:00;15.80;99.90
20700;DHT22;10511;51.232;9.420;2023-05-10T09:52:30;15.60;99.90
20700;DHT22;10511;51.232;9.420;2023-05-10T09:54:57;15.60;99.90
20700;DHT22;10511;51.232;9.420;2023-05-10T09:57:24;15.40;99.90
20700;DHT22;10511;51.232;9.420;2023-05-10T09:59:52;15.40;99.90
20700;DHT22;10511;51.232;9.420;2023-05-10T10:02:21;15.40;99.90
20700;DHT22;10511;51.232;9.420;2023-05-10T10:04:55;15.30;99.90
20700;DHT22;10511;51.232;9.420;2023-05-10T10:07:23;15.40;99.90
20700;DHT22;10511;51.232;9.420;2023-05-10T10:09:52;15.70;99.90
20700;DHT22;10511;51.232;9.420;2023-05-10T10:12:19;16.00;99.90
20700;DHT22;10511;51.232;9.420;2023-05-10T10:14:47;16.10;99.90
20700;DHT22;10511;51.232;9.420;2023-05-10T10:17:16;16.00;99.90
20700;DHT22;10511;51.232;9.420;2023-05-10T10:19:45;16.20;99.90
20700;DHT22;10511;51.232;9.420;2023-05-10T10:22:13;16.20;99.90
20700;DHT22;10511;51.232;9.420;2023-05-10T10:24:40;16.40;99.90
20700;DHT22;10511;51.232;9.420;2023-05-10T10:27:15;16.40;99.90
20700;DHT22;10511;51.232;9.420;2023-05-10T10:29:52;16.40;99.90
20700;DHT22;10511;51.232;9.420;2023-05-10T10:32:26;16.50;99.90
20700;DHT22;10511;51.232;9.420;2023-05-10T10:34:55;16.70;99.90
20700;DHT22;10511;51.232;9.420;2023-05-10T10:37:23;17.10;99.90
20700;DHT22;10511;51.232;9.420;2023-05-10T10:39:50;17.40;99.90
20700;DHT22;10511;51.232;9.420;2023-05-10T10:42:44;17.60;99.90
20700;DHT22;10511;51.232;9.420;2023-05-10T10:45:12;17.80;99.90
20700;DHT22;10511;51.232;9.420;2023-05-10T10:47:39;18.00;99.90
20700;DHT22;10511;51.232;9.420;2023-05-10T10:50:08;18.10;99.90
20700;DHT22;10511;51.232;9.420;2023-05-10T10:52:36;18.30;99.90
20700;DHT22;10511;51.232;9.420;2023-05-10T10:55:06;18.40;99.90
20700;DHT22;10511;51.232;9.420;2023-05-10T10:57:43;18.00;99.90
20700;DHT22;10511;51.232;9.420;2023-05-10T11:00:25;17.90;99.90
20700;DHT22;10511;51.232;9.420;2023-05-10T11:02:54;17.90;99.90
20700;DHT22;10511;51.232;9.420;2023-05-10T11:05:40;17.70;99.90
20700;DHT22;10511;51.232;9.420;2023-05-10T11:08:10;17.50;99.90
20700;DHT22;10511;51.232;9.420;2023-05-10T11:10:38;17.40;99.90
20700;DHT22;10511;51.232;9.420;2023-05-10T11:13:06;17.20;99.90
20700;DHT22;10511;51.232;9.420;2023-05-10T11:15:35;17.20;99.90
20700;DHT22;10511;51.232;9.420;2023-05-10T11:18:17;17.30;99.90
20700;DHT22;10511;51.232;9.420;2023-05-10T11:20:50;17.30;99.90
20700;DHT22;10511;51.232;9.420;2023-05-10T11:23:18;17.30;99.90
20700;DHT22;10511;51.232;9.420;2023-05-10T11:25:48;17.30;99.90
20700;DHT22;10511;51.232;9.420;2023-05-10T11:28:17;17.30;99.90
20700;DHT22;10511;51.232;9.420;2023-05-10T11:30:44;17.40;99.90
20700;DHT22;10511;51.232;9.420;2023-05-10T11:33:16;17.50;99.90
20700;DHT22;10511;51.232;9.420;2023-05-10T11:35:45;17.50;99.90
20700;DHT22;10511;51.232;9.420;2023-05-10T11:38:13;17.60;99.90
20700;DHT22;10511;51.232;9.420;2023-05-10T11:40:40;17.90;99.90
20700;DHT22;10511;51.232;9.420;2023-05-10T11:43:09;17.90;99.90
20700;DHT22;10511;51.232;9.420;2023-05-10T11:45:37;17.90;99.90
20700;DHT22;10511;51.232;9.420;2023-05-10T11:48:04;17.70;99.90
20700;DHT22;10511;51.232;9.420;2023-05-10T11:50:31;17.50;99.90
20700;DHT22;10511;51.232;9.420;2023-05-10T11:52:59;17.40;99.90
20700;DHT22;10511;51.232;9.420;2023-05-10T11:55:26;17.40;99.90
20700;DHT22;10511;51.232;9.420;2023-05-10T11:58:00;17.30;99.90
20700;DHT22;10511;51.232;9.420;2023-05-10T12:00:27;17.30;99.90
20700;DHT22;10511;51.232;9.420;2023-05-10T12:02:54;17.30;99.90
20700;DHT22;10511;51.232;9.420;2023-05-10T12:05:21;17.20;99.90
20700;DHT22;10511;51.232;9.420;2023-05-10T12:07:49;17.40;99.90
20700;DHT22;10511;51.232;9.420;2023-05-10T12:10:25;17.50;99.90
20700;DHT22;10511;51.232;9.420;2023-05-10T12:12:53;17.40;99.90
20700;DHT22;10511;51.232;9.420;2023-05-10T12:15:21;17.40;99.90
20700;DHT22;10511;51.232;9.420;2023-05-10T12:17:48;17.30;99.90
20700;DHT22;10511;51.232;9.420;2023-05-10T12:20:16;17.20;99.90
20700;DHT22;10511;51.232;9.420;2023-05-10T12:22:45;17.00;99.90
20700;DHT22;10511;51.232;9.420;2023-05-10T12:25:12;16.80;99.90
20700;DHT22;10511;51.232;9.420;2023-05-10T12:27:41;16.10;99.90
20700;DHT22;10511;51.232;9.420;2023-05-10T12:30:08;15.60;99.90
20700;DHT22;10511;51.232;9.420;2023-05-10T12:32:39;15.40;99.90
20700;DHT22;10511;51.232;9.420;2023-05-10T12:35:07;15.20;99.90
20700;DHT22;10511;51.232;9.420;2023-05-10T12:37:36;15.10;99.90
20700;DHT22;10511;51.232;9.420;2023-05-10T12:40:06;15.10;99.90
20700;DHT22;10511;51.232;9.420;2023-05-10T12:42:34;15.00;99.90
20700;DHT22;10511;51.232;9.420;2023-05-10T12:45:04;15.10;99.90
20700;DHT22;10511;51.232;9.420;2023-05-10T12:47:31;15.20;99.90
20700;DHT22;10511;51.232;9.420;2023-05-10T12:49:58;15.20;99.90
20700;DHT22;10511;51.232;9.420;2023-05-10T12:52:27;15.40;99.90
20700;DHT22;10511;51.232;9.420;2023-05-10T12:54:54;15.60;99.90
20700;DHT22;10511;51.232;9.420;2023-05-10T12:57:21;15.80;99.90
20700;DHT22;10511;51.232;9.420;2023-05-10T12:59:48;15.90;99.90
20700;DHT22;10511;51.232;9.420;2023-05-10T13:02:16;16.10;99.90
20700;DHT22;10511;51.232;9.420;2023-05-10T13:04:44;16.20;99.90
20700;DHT22;10511;51.232;9.420;2023-05-10T13:07:12;16.20;99.90
20700;DHT22;10511;51.232;9.420;2023-05-10T13:09:39;16.20;99.90
20700;DHT22;10511;51.232;9.420;2023-05-10T13:12:06;16.30;99.90
20700;DHT22;10511;51.232;9.420;2023-05-10T13:14:33;16.50;99.90
20700;DHT22;10511;51.232;9.420;2023-05-10T13:16:59;16.60;99.90
20700;DHT22;10511;51.232;9.420;2023-05-10T13:19:28;16.80;99.90
20700;DHT22;10511;51.232;9.420;2023-05-10T13:21:55;17.00;99.90
20700;DHT22;10511;51.232;9.420;2023-05-10T13:24:21;17.20;99.90
20700;DHT22;10511;51.232;9.420;2023-05-10T13:26:48;17.40;99.90
20700;DHT22;10511;51.232;9.420;2023-05-10T13:29:16;17.60;99.90
20700;DHT22;10511;51.232;9.420;2023-05-10T13:31:43;17.70;99.90
20700;DHT22;10511;51.232;9.420;2023-05-10T13:34:10;17.60;99.90
20700;DHT22;10511;51.232;9.420;2023-05-10T13:36:38;17.70;99.90
20700;DHT22;10511;51.232;9.420;2023-05-10T13:39:05;17.80;99.90
20700;DHT22;10511;51.232;9.420;2023-05-10T13:41:32;17.60;99.90
20700;DHT22;10511;51.232;9.420;2023-05-10T13:43:59;17.60;99.90
20700;DHT22;10511;51.232;9.420;2023-05-10T13:46:26;17.60;99.90
20700;DHT22;10511;51.232;9.420;2023-05-10T13:48:53;17.50;99.90
20700;DHT22;10511;51.232;9.420;2023-05-10T13:51:20;17.50;99.90
20700;DHT22;10511;51.232;9.420;2023-05-10T13:53:48;17.50;99.90
20700;DHT22;10511;51.232;9.420;2023-05-10T13:56:15;17.40;99.90
20700;DHT22;10511;51.232;9.420;2023-05-10T13:58:42;17.50;99.90
20700;DHT22;10511;51.232;9.420;2023-05-10T14:01:09;17.40;99.90
20700;DHT22;10511;51.232;9.420;2023-05-10T14:03:37;17.30;99.90
20700;DHT22;10511;51.232;9.420;2023-05-10T14:06:04;17.50;99.90
20700;DHT22;10511;51.232;9.420;2023-05-10T14:08:32;17.60;99.90
20700;DHT22;10511;51.232;9.420;2023-05-10T14:11:01;17.60;99.90
20700;DHT22;10511;51.232;9.420;2023-05-10T14:13:28;17.60;99.90
20700;DHT22;10511;51.232;9.420;2023-05-10T14:15:55;17.60;99.90
20700;DHT22;10511;51.232;9.420;2023-05-10T14:18:22;17.60;99.90
20700;DHT22;10511;51.232;9.420;2023-05-10T14:20:49;17.60;99.90
20700;DHT22;10511;51.232;9.420;2023-05-10T14:23:16;17.50;99.90
20700;DHT22;10511;51.232;9.420;2023-05-10T14:25:42;17.50;99.90
20700;DHT22;10511;51.232;9.420;2023-05-10T14:28:11;17.30;99.90
20700;DHT22;10511;51.232;9.420;2023-05-10T14:30:38;17.20;99.90
20700;DHT22;10511;51.232;9.420;2023-05-10T14:33:05;17.00;99.90
20700;DHT22;10511;51.232;9.420;2023-05-10T14:35:33;16.20;99.90
20700;DHT22;10511;51.232;9.420;2023-05-10T14:38:00;15.70;99.90
20700;DHT22;10511;51.232;9.420;2023-05-10T14:40:27;15.50;99.90
20700;DHT22;10511;51.232;9.420;2023-05-10T14:42:54;15.30;99.90
20700;DHT22;10511;51.232;9.420;2023-05-10T14:45:23;15.30;99.90
20700;DHT22;10511;51.232;9.420;2023-05-10T14:47:50;15.40;99.90
20700;DHT22;10511;51.232;9.420;2023-05-10T14:50:17;15.40;99.90
20700;DHT22;10511;51.232;9.420;2023-05-10T14:52:47;15.30;99.90
20700;DHT22;10511;51.232;9.420;2023-05-10T14:55:15;15.20;99.90
20700;DHT22;10511;51.232;9.420;2023-05-10T14:57:41;14.90;99.90
20700;DHT22;10511;51.232;9.420;2023-05-10T15:00:10;14.90;99.90
20700;DHT22;10511;51.232;9.420;2023-05-10T15:02:39;15.00;99.90
20700;DHT22;10511;51.232;9.420;2023-05-10T15:05:06;15.10;99.90
20700;DHT22;10511;51.232;9.420;2023-05-10T15:07:33;15.10;99.90
20700;DHT22;10511;51.232;9.420;2023-05-10T15:10:00;15.10;99.90
20700;DHT22;10511;51.232;9.420;2023-05-10T15:12:27;15.10;99.90
20700;DHT22;10511;51.232;9.420;2023-05-10T15:14:54;15.10;99.90
20700;DHT22;10511;51.232;9.420;2023-05-10T15:17:21;15.00;99.90
20700;DHT22;10511;51.232;9.420;2023-05-10T15:19:49;15.10;99.90
20700;DHT22;10511;51.232;9.420;2023-05-10T15:22:16;15.00;99.90
20700;DHT22;10511;51.232;9.420;2023-05-10T15:24:43;15.00;99.90
20700;DHT22;10511;51.232;9.420;2023-05-10T15:27:10;14.90;99.90
20700;DHT22;10511;51.232;9.420;2023-05-10T15:29:37;14.80;99.90
20700;DHT22;10511;51.232;9.420;2023-05-10T15:32:04;14.80;99.90
20700;DHT22;10511;51.232;9.420;2023-05-10T15:34:31;14.80;99.90
20700;DHT22;10511;51.232;9.420;2023-05-10T15:36:59;14.70;99.90